sensor_id;sensor_type;location;lat;lon;timestamp;temperature;humidity
24176;DHT22;12324;48.146;11.502;2023-12-04T00:00:17;-6.90;99.90
24176;DHT22;12324;48.146;11.502;2023-12-04T00:02:44;-7.00;99.90
24176;DHT22;12324;48.146;11.502;2023-12-04T00:05:11;-7.00;99.90
24176;DHT22;12324;48.146;11.502;2023-12-04T00:07:38;-7.00;99.90
24176;DHT22;12324;48.146;11.502;2023-12-04T00:10:05;-7.00;99.90
24176;DHT22;12324;48.146;11.502;2023-12-04T00:12:32;-7.00;99.90
24176;DHT22;12324;48.146;11.502;2023-12-04T00:14:59;-7.10;99.90
24176;DHT22;12324;48.146;11.502;2023-12-04T00:17:26;-7.10;99.90
24176;DHT22;12324;48.146;11.502;2023-12-04T00:19:53;-7.10;99.90
24176;DHT22;12324;48.146;11.502;2023-12-04T00:22:20;-7.10;99.90
24176;DHT22;12324;48.146;11.502;2023-12-04T00:24:46;-7.20;99.90
24176;DHT22;12324;48.146;11.502;2023-12-04T00:27:13;-7.20;99.90
24176;DHT22;12324;48.146;11.502;2023-12-04T00:29:40;-7.20;99.90
24176;DHT22;12324;48.146;11.502;2023-12-04T00:32:07;-7.20;99.90
24176;DHT22;12324;48.146;11.502;2023-12-04T00:34:33;-7.20;99.90
24176;DHT22;12324;48.146;11.502;2023-12-04T00:37:00;-7.20;99.90
24176;DHT22;12324;48.146;11.502;2023-12-04T00:39:27;-7.20;99.90
24176;DHT22;12324;48.146;11.502;2023-12-04T00:41:54;-7.20;99.90
24176;DHT22;12324;48.146;11.502;2023-12-04T00:44:20;-7.20;99.90
24176;DHT22;12324;48.146;11.502;2023-12-04T00:46:47;-7.20;99.90
24176;DHT22;12324;48.146;11.502;2023-12-04T00:49:14;-7.20;99.90
24176;DHT22;12324;48.146;11.502;2023-12-04T00:51:41;-7.20;99.90
24176;DHT22;12324;48.146;11.502;2023-12-04T00:54:08;-7.20;99.90
24176;DHT22;12324;48.146;11.502;2023-12-04T00:56:38;-7.20;99.90
24176;DHT22;12324;48.146;11.502;2023-12-04T00:59:09;-7.20;99.90
24176;DHT22;12324;48.146;11.502;2023-12-04T01:01:36;-7.20;99.90
24176;DHT22;12324;48.146;11.502;2023-12-04T01:04:04;-7.20;99.90
24176;DHT22;12324;48.146;11.502;2023-12-04T01:06:32;-7.20;99.90
24176;DHT22;12324;48.146;11.502;2023-12-04T01:08:59;-7.30;99.90
24176;DHT22;12324;48.146;11.502;2023-12-04T01:11:25;-7.30;99.90
24176;DHT22;12324;48.146;11.502;2023-12-04T01:13:53;-7.20;99.90
24176;DHT22;12324;48.146;11.502;2023-12-04T01:16:20;-7.20;99.90
24176;DHT22;12324;48.146;11.502;2023-12-04T01:18:46;-7.20;99.90
24176;DHT22;12324;48.146;11.502;2023-12-04T01:21:13;-7.20;99.90
24176;DHT22;12324;48.146;11.502;2023-12-04T01:23:41;-7.20;99.90
24176;DHT22;12324;48.146;11.502;2023-12-04T01:26:07;-7.30;99.90
24176;DHT22;12324;48.146;11.502;2023-12-04T01:28:36;-7.20;99.90
24176;DHT22;12324;48.146;11.502;2023-12-04T01:31:03;-7.20;99.90
24176;DHT22;12324;48.146;11.502;2023-12-04T01:33:30;-7.30;99.90
24176;DHT22;12324;48.146;11.502;2023-12-04T01:35:57;-7.20;99.90
24176;DHT22;12324;48.146;11.502;2023-12-04T01:38:24;-7.20;99.90
24176;DHT22;12324;48.146;11.502;2023-12-04T01:40:50;-7.20;99.90
24176;DHT22;12324;48.146;11.502;2023-12-04T01:43:17;-7.20;99.90
24176;DHT22;12324;48.146;11.502;2023-12-04T01:45:45;-7.10;99.90
24176;DHT22;12324;48.146;11.502;2023-12-04T01:48:13;-7.30;99.90
24176;DHT22;12324;48.146;11.502;2023-12-04T01:50:41;-7.40;99.90
24176;DHT22;12324;48.146;11.502;2023-12-04T01:53:07;-7.40;99.90
24176;DHT22;12324;48.146;11.502;2023-12-04T01:55:36;-7.50;99.90
24176;DHT22;12324;48.146;11.502;2023-12-04T01:58:04;-7.40;99.90
24176;DHT22;12324;48.146;11.502;2023-12-04T02:00:32;-7.50;99.90
24176;DHT22;12324;48.146;11.502;2023-12-04T02:02:59;-7.50;99.90
24176;DHT22;12324;48.146;11.502;2023-12-04T02:05:26;-7.50;99.90
24176;DHT22;12324;48.146;11.502;2023-12-04T02:07:54;-7.50;99.90
24176;DHT22;12324;48.146;11.502;2023-12-04T02:10:22;-7.40;99.90
24176;DHT22;12324;48.146;11.502;2023-12-04T02:12:50;-7.40;99.90
24176;DHT22;12324;48.146;11.502;2023-12-04T02:15:17;-7.50;99.90
24176;DHT22;12324;48.146;11.502;2023-12-04T02:17:44;-7.50;99.90
24176;DHT22;12324;48.146;11.502;2023-12-04T02:20:14;-7.50;99.90
24176;DHT22;12324;48.146;11.502;2023-12-04T02:22:41;-7.50;99.90
24176;DHT22;12324;48.146;11.502;2023-12-04T02:25:09;-7.50;99.90
24176;DHT22;12324;48.146;11.502;2023-12-04T02:27:58;-7.50;99.90
24176;DHT22;12324;48.146;11.502;2023-12-04T02:30:28;-7.50;99.90
24176;DHT22;12324;48.146;11.502;2023-12-04T02:32:58;-7.30;99.90
24176;DHT22;12324;48.146;11.502;2023-12-04T02:35:28;-7.50;99.90
24176;DHT22;12324;48.146;11.502;2023-12-04T02:37:56;-7.50;99.90
24176;DHT22;12324;48.146;11.502;2023-12-04T02:40:25;-7.40;99.90
24176;DHT22;12324;48.146;11.502;2023-12-04T02:42:52;-7.40;99.90
24176;DHT22;12324;48.146;11.502;2023-12-04T02:45:19;-7.40;99.90
24176;DHT22;12324;48.146;11.502;2023-12-04T02:47:46;-7.40;99.90
24176;DHT22;12324;48.146;11.502;2023-12-04T02:50:13;-7.40;99.90
24176;DHT22;12324;48.146;11.502;2023-12-04T02:52:39;-7.30;99.90
24176;DHT22;12324;48.146;11.502;2023-12-04T02:55:06;-7.30;99.90
24176;DHT22;12324;48.146;11.502;2023-12-04T02:57:33;-7.30;99.90
24176;DHT22;12324;48.146;11.502;2023-12-04T03:00:00;-7.30;99.90
24176;DHT22;12324;48.146;11.502;2023-12-04T03:02:27;-7.40;99.90
24176;DHT22;12324;48.146;11.502;2023-12-04T03:04:54;-7.30;99.90
24176;DHT22;12324;48.146;11.502;2023-12-04T03:07:21;-7.40;99.90
24176;DHT22;12324;48.146;11.502;2023-12-04T03:09:48;-7.40;99.90
24176;DHT22;12324;48.146;11.502;2023-12-04T03:12:16;-7.50;99.90
24176;DHT22;12324;48.146;11.502;2023-12-04T03:14:43;-7.50;99.90
24176;DHT22;12324;48.146;11.502;2023-12-04T03:17:10;-7.50;99.90
24176;DHT22;12324;48.146;11.502;2023-12-04T03:19:37;-7.50;99.90
24176;DHT22;12324;48.146;11.502;2023-12-04T03:22:04;-7.70;99.90
24176;DHT22;12324;48.146;11.502;2023-12-04T03:24:30;-7.60;99.90
24176;DHT22;12324;48.146;11.502;2023-12-04T03:26:57;-7.60;99.90
24176;DHT22;12324;48.146;11.502;2023-12-04T03:29:24;-7.60;99.90
24176;DHT22;12324;48.146;11.502;2023-12-04T03:31:51;-7.60;99.90
24176;DHT22;12324;48.146;11.502;2023-12-04T03:34:18;-7.70;99.90
24176;DHT22;12324;48.146;11.502;2023-12-04T03:36:44;-7.70;99.90
24176;DHT22;12324;48.146;11.502;2023-12-04T03:39:11;-7.70;99.90
24176;DHT22;12324;48.146;11.502;2023-12-04T03:41:38;-7.70;99.90
24176;DHT22;12324;48.146;11.502;2023-12-04T03:44:05;-7.70;99.90
24176;DHT22;12324;48.146;11.502;2023-12-04T03:46:32;-7.70;99.90
24176;DHT22;12324;48.146;11.502;2023-12-04T03:48:59;-7.70;99.90
24176;DHT22;12324;48.146;11.502;2023-12-04T03:51:26;-7.70;99.90
24176;DHT22;12324;48.146;11.502;2023-12-04T03:53:53;-7.80;99.90
24176;DHT22;12324;48.146;11.502;2023-12-04T03:56:20;-7.70;99.90
24176;DHT22;12324;48.146;11.502;2023-12-04T03:58:47;-7.90;99.90
24176;DHT22;12324;48.146;11.502;2023-12-04T04:01:13;-8.00;99.90
24176;DHT22;12324;48.146;11.502;2023-12-04T04:03:40;-8.10;99.90
24176;DHT22;12324;48.146;11.502;2023-12-04T04:08:38;-8.40;99.90
24176;DHT22;12324;48.146;11.502;2023-12-04T04:11:05;-8.60;99.90
24176;DHT22;12324;48.146;11.502;2023-12-04T04:13:32;-8.60;99.90
24176;DHT22;12324;48.146;11.502;2023-12-04T04:15:59;-8.60;99.90
24176;DHT22;12324;48.146;11.502;2023-12-04T04:18:26;-8.60;99.90
24176;DHT22;12324;48.146;11.502;2023-12-04T04:20:53;-8.70;99.90
24176;DHT22;12324;48.146;11.502;2023-12-04T04:23:20;-8.90;99.90
24176;DHT22;12324;48.146;11.502;2023-12-04T04:25:47;-8.90;99.90
24176;DHT22;12324;48.146;11.502;2023-12-04T04:28:14;-8.80;99.90
24176;DHT22;12324;48.146;11.502;2023-12-04T04:30:40;-8.70;99.90
24176;DHT22;12324;48.146;11.502;2023-12-04T04:35:35;-9.20;99.90
24176;DHT22;12324;48.146;11.502;2023-12-04T04:38:01;-9.30;99.90
24176;DHT22;12324;48.146;11.502;2023-12-04T04:40:28;-9.60;99.90
24176;DHT22;12324;48.146;11.502;2023-12-04T04:42:55;-9.70;99.90
24176;DHT22;12324;48.146;11.502;2023-12-04T04:45:22;-9.90;99.90
24176;DHT22;12324;48.146;11.502;2023-12-04T04:47:49;-10.00;99.90
24176;DHT22;12324;48.146;11.502;2023-12-04T04:50:16;-10.00;99.90
24176;DHT22;12324;48.146;11.502;2023-12-04T04:52:43;-10.00;99.90
24176;DHT22;12324;48.146;11.502;2023-12-04T04:55:09;-10.00;99.90
24176;DHT22;12324;48.146;11.502;2023-12-04T04:57:36;-10.30;99.90
24176;DHT22;12324;48.146;11.502;2023-12-04T05:00:03;-10.40;99.90
24176;DHT22;12324;48.146;11.502;2023-12-04T05:02:31;-10.10;99.90
24176;DHT22;12324;48.146;11.502;2023-12-04T05:04:57;-10.30;99.90
24176;DHT22;12324;48.146;11.502;2023-12-04T05:07:24;-10.30;99.90
24176;DHT22;12324;48.146;11.502;2023-12-04T05:09:51;-10.30;99.90
24176;DHT22;12324;48.146;11.502;2023-12-04T05:12:18;-10.10;99.90
24176;DHT22;12324;48.146;11.502;2023-12-04T05:14:44;-10.10;99.90
24176;DHT22;12324;48.146;11.502;2023-12-04T05:17:11;-10.20;99.90
24176;DHT22;12324;48.146;11.502;2023-12-04T05:19:38;-10.30;99.90
24176;DHT22;12324;48.146;11.502;2023-12-04T05:22:05;-10.10;99.90
24176;DHT22;12324;48.146;11.502;2023-12-04T05:24:32;-10.30;99.90
24176;DHT22;12324;48.146;11.502;2023-12-04T05:26:59;-10.20;99.90
24176;DHT22;12324;48.146;11.502;2023-12-04T05:29:25;-10.30;99.90
24176;DHT22;12324;48.146;11.502;2023-12-04T05:31:52;-10.40;99.90
24176;DHT22;12324;48.146;11.502;2023-12-04T05:34:19;-10.40;99.90
24176;DHT22;12324;48.146;11.502;2023-12-04T05:36:46;-10.40;99.90
24176;DHT22;12324;48.146;11.502;2023-12-04T05:39:12;-10.40;99.90
24176;DHT22;12324;48.146;11.502;2023-12-04T05:41:39;-10.30;99.90
24176;DHT22;12324;48.146;11.502;2023-12-04T05:44:06;-10.40;99.90
24176;DHT22;12324;48.146;11.502;2023-12-04T05:46:33;-10.30;99.90
24176;DHT22;12324;48.146;11.502;2023-12-04T05:48:59;-10.30;99.90
24176;DHT22;12324;48.146;11.502;2023-12-04T05:51:26;-10.30;99.90
24176;DHT22;12324;48.146;11.502;2023-12-04T05:53:53;-10.30;99.90
24176;DHT22;12324;48.146;11.502;2023-12-04T05:56:20;-10.30;99.90
24176;DHT22;12324;48.146;11.502;2023-12-04T05:58:47;-10.30;99.90
24176;DHT22;12324;48.146;11.502;2023-12-04T06:01:14;-10.10;99.90
24176;DHT22;12324;48.146;11.502;2023-12-04T06:03:42;-10.20;99.90
24176;DHT22;12324;48.146;11.502;2023-12-04T06:06:08;-10.20;99.90
24176;DHT22;12324;48.146;11.502;2023-12-04T06:08:35;-10.20;99.90
24176;DHT22;12324;48.146;11.502;2023-12-04T06:11:02;-10.10;99.90
24176;DHT22;12324;48.146;11.502;2023-12-04T06:13:29;-10.20;99.90
24176;DHT22;12324;48.146;11.502;2023-12-04T06:15:56;-10.20;99.90
24176;DHT22;12324;48.146;11.502;2023-12-04T06:18:22;-10.20;99.90
24176;DHT22;12324;48.146;11.502;2023-12-04T06:20:53;-10.20;99.90
24176;DHT22;12324;48.146;11.502;2023-12-04T06:23:20;-10.20;99.90
24176;DHT22;12324;48.146;11.502;2023-12-04T06:25:47;-10.30;99.90
24176;DHT22;12324;48.146;11.502;2023-12-04T06:28:14;-10.30;99.90
24176;DHT22;12324;48.146;11.502;2023-12-04T06:30:41;-10.30;99.90
24176;DHT22;12324;48.146;11.502;2023-12-04T06:33:08;-10.30;99.90
24176;DHT22;12324;48.146;11.502;2023-12-04T06:35:35;-10.30;99.90
24176;DHT22;12324;48.146;11.502;2023-12-04T06:38:06;-10.10;99.90
24176;DHT22;12324;48.146;11.502;2023-12-04T06:40:34;-10.10;99.90
24176;DHT22;12324;48.146;11.502;2023-12-04T06:43:01;-10.20;99.90
24176;DHT22;12324;48.146;11.502;2023-12-04T06:45:29;-10.30;99.90
24176;DHT22;12324;48.146;11.502;2023-12-04T06:47:56;-10.30;99.90
24176;DHT22;12324;48.146;11.502;2023-12-04T06:50:23;-10.30;99.90
24176;DHT22;12324;48.146;11.502;2023-12-04T06:52:50;-10.40;99.90
24176;DHT22;12324;48.146;11.502;2023-12-04T06:55:16;-10.40;99.90
24176;DHT22;12324;48.146;11.502;2023-12-04T06:57:43;-10.40;99.90
24176;DHT22;12324;48.146;11.502;2023-12-04T07:00:10;-10.50;99.90
24176;DHT22;12324;48.146;11.502;2023-12-04T07:02:48;-10.60;99.90
24176;DHT22;12324;48.146;11.502;2023-12-04T07:05:16;-10.30;99.90
24176;DHT22;12324;48.146;11.502;2023-12-04T07:07:43;-10.60;99.90
24176;DHT22;12324;48.146;11.502;2023-12-04T07:10:10;-10.50;99.90
24176;DHT22;12324;48.146;11.502;2023-12-04T07:12:42;-10.40;99.90
24176;DHT22;12324;48.146;11.502;2023-12-04T07:15:10;-10.40;99.90
24176;DHT22;12324;48.146;11.502;2023-12-04T07:17:38;-10.20;99.90
24176;DHT22;12324;48.146;11.502;2023-12-04T07:20:06;-10.30;99.90
24176;DHT22;12324;48.146;11.502;2023-12-04T07:22:33;-10.30;99.90
24176;DHT22;12324;48.146;11.502;2023-12-04T07:25:05;-10.20;99.90
24176;DHT22;12324;48.146;11.502;2023-12-04T07:27:33;-10.20;99.90
24176;DHT22;12324;48.146;11.502;2023-12-04T07:30:02;-10.10;99.90
24176;DHT22;12324;48.146;11.502;2023-12-04T07:32:29;-10.10;99.90
24176;DHT22;12324;48.146;11.502;2023-12-04T07:34:57;-10.00;99.90
24176;DHT22;12324;48.146;11.502;2023-12-04T07:37:23;-9.70;99.90
24176;DHT22;12324;48.146;11.502;2023-12-04T07:39:50;-9.60;99.90
24176;DHT22;12324;48.146;11.502;2023-12-04T07:42:17;-9.50;99.90
24176;DHT22;12324;48.146;11.502;2023-12-04T07:44:44;-9.50;99.90
24176;DHT22;12324;48.146;11.502;2023-12-04T07:47:10;-9.60;99.90
24176;DHT22;12324;48.146;11.502;2023-12-04T07:49:38;-9.50;99.90
24176;DHT22;12324;48.146;11.502;2023-12-04T07:52:05;-9.40;99.90
24176;DHT22;12324;48.146;11.502;2023-12-04T07:54:32;-9.40;99.90
24176;DHT22;12324;48.146;11.502;2023-12-04T07:56:59;-9.30;99.90
24176;DHT22;12324;48.146;11.502;2023-12-04T07:59:26;-9.20;99.90
24176;DHT22;12324;48.146;11.502;2023-12-04T08:01:53;-9.40;99.90
24176;DHT22;12324;48.146;11.502;2023-12-04T08:04:19;-9.50;99.90
24176;DHT22;12324;48.146;11.502;2023-12-04T08:06:46;-9.30;99.90
24176;DHT22;12324;48.146;11.502;2023-12-04T08:09:13;-9.40;99.90
24176;DHT22;12324;48.146;11.502;2023-12-04T08:11:40;-9.00;99.90
24176;DHT22;12324;48.146;11.502;2023-12-04T08:14:07;-8.90;99.90
24176;DHT22;12324;48.146;11.502;2023-12-04T08:16:34;-8.90;99.90
24176;DHT22;12324;48.146;11.502;2023-12-04T08:19:01;-8.90;99.90
24176;DHT22;12324;48.146;11.502;2023-12-04T08:21:28;-8.80;99.90
24176;DHT22;12324;48.146;11.502;2023-12-04T08:23:55;-8.80;99.90
24176;DHT22;12324;48.146;11.502;2023-12-04T08:26:23;-8.60;99.90
24176;DHT22;12324;48.146;11.502;2023-12-04T08:28:52;-8.60;99.90
24176;DHT22;12324;48.146;11.502;2023-12-04T08:31:23;-6.80;99.90
24176;DHT22;12324;48.146;11.502;2023-12-04T08:33:49;-6.40;99.90
24176;DHT22;12324;48.146;11.502;2023-12-04T08:36:16;-7.50;99.90
24176;DHT22;12324;48.146;11.502;2023-12-04T08:38:43;-7.80;99.90
24176;DHT22;12324;48.146;11.502;2023-12-04T08:41:12;-7.90;99.90
24176;DHT22;12324;48.146;11.502;2023-12-04T08:43:39;-7.80;99.90
24176;DHT22;12324;48.146;11.502;2023-12-04T08:46:06;-7.80;99.90
24176;DHT22;12324;48.146;11.502;2023-12-04T08:48:34;-7.90;99.90
24176;DHT22;12324;48.146;11.502;2023-12-04T08:51:01;-7.90;99.90
24176;DHT22;12324;48.146;11.502;2023-12-04T08:53:28;-7.80;99.90
24176;DHT22;12324;48.146;11.502;2023-12-04T08:55:54;-7.60;99.90
24176;DHT22;12324;48.146;11.502;2023-12-04T08:58:21;-7.50;99.90
24176;DHT22;12324;48.146;11.502;2023-12-04T09:00:48;-7.60;99.90
24176;DHT22;12324;48.146;11.502;2023-12-04T09:03:15;-7.50;99.90
24176;DHT22;12324;48.146;11.502;2023-12-04T09:05:52;-7.50;99.90
24176;DHT22;12324;48.146;11.502;2023-12-04T09:08:19;-7.50;99.90
24176;DHT22;12324;48.146;11.502;2023-12-04T09:11:02;-7.40;99.90
24176;DHT22;12324;48.146;11.502;2023-12-04T09:13:48;-7.30;99.90
24176;DHT22;12324;48.146;11.502;2023-12-04T09:16:15;-7.50;99.90
24176;DHT22;12324;48.146;11.502;2023-12-04T09:18:42;-7.80;99.90
24176;DHT22;12324;48.146;11.502;2023-12-04T09:21:09;-7.70;99.90
24176;DHT22;12324;48.146;11.502;2023-12-04T09:23:36;-7.60;99.90
24176;DHT22;12324;48.146;11.502;2023-12-04T09:26:02;-7.80;99.90
24176;DHT22;12324;48.146;11.502;2023-12-04T09:28:30;-7.40;99.90
24176;DHT22;12324;48.146;11.502;2023-12-04T09:30:56;-7.20;99.90
24176;DHT22;12324;48.146;11.502;2023-12-04T09:33:23;-7.40;99.90
24176;DHT22;12324;48.146;11.502;2023-12-04T09:35:50;-7.40;99.90
24176;DHT22;12324;48.146;11.502;2023-12-04T09:38:17;-7.60;99.90
24176;DHT22;12324;48.146;11.502;2023-12-04T09:40:44;-7.40;99.90
24176;DHT22;12324;48.146;11.502;2023-12-04T09:43:11;-7.40;99.90
24176;DHT22;12324;48.146;11.502;2023-12-04T09:45:38;-7.30;99.90
24176;DHT22;12324;48.146;11.502;2023-12-04T09:48:08;-7.30;99.90
24176;DHT22;12324;48.146;11.502;2023-12-04T09:50:36;-7.30;99.90
24176;DHT22;12324;48.146;11.502;2023-12-04T09:53:06;-7.30;99.90
24176;DHT22;12324;48.146;11.502;2023-12-04T09:55:36;-7.30;99.90
24176;DHT22;12324;48.146;11.502;2023-12-04T09:58:03;-7.40;99.90
24176;DHT22;12324;48.146;11.502;2023-12-04T10:00:31;-7.60;99.90
24176;DHT22;12324;48.146;11.502;2023-12-04T10:02:59;-7.50;99.90
24176;DHT22;12324;48.146;11.502;2023-12-04T10:05:26;-7.40;99.90
24176;DHT22;12324;48.146;11.502;2023-12-04T10:07:53;-7.30;99.90
24176;DHT22;12324;48.146;11.502;2023-12-04T10:10:19;-7.00;99.90
24176;DHT22;12324;48.146;11.502;2023-12-04T10:12:46;-6.80;99.90
24176;DHT22;12324;48.146;11.502;2023-12-04T10:15:13;-6.90;99.90
24176;DHT22;12324;48.146;11.502;2023-12-04T10:17:41;-6.70;99.90
24176;DHT22;12324;48.146;11.502;2023-12-04T10:22:59;-6.40;99.90
24176;DHT22;12324;48.146;11.502;2023-12-04T10:25:28;-6.20;99.90
24176;DHT22;12324;48.146;11.502;2023-12-04T10:28:09;-5.90;99.90
24176;DHT22;12324;48.146;11.502;2023-12-04T10:30:37;-5.90;99.90
24176;DHT22;12324;48.146;11.502;2023-12-04T10:33:05;-5.60;99.90
24176;DHT22;12324;48.146;11.502;2023-12-04T10:35:35;-5.80;99.90
24176;DHT22;12324;48.146;11.502;2023-12-04T10:38:06;-5.40;99.90
24176;DHT22;12324;48.146;11.502;2023-12-04T10:40:35;-5.60;99.90
24176;DHT22;12324;48.146;11.502;2023-12-04T10:45:41;-5.10;99.90
24176;DHT22;12324;48.146;11.502;2023-12-04T10:48:12;-5.00;99.90
24176;DHT22;12324;48.146;11.502;2023-12-04T10:50:42;-4.90;99.90
24176;DHT22;12324;48.146;11.502;2023-12-04T10:53:11;-5.10;99.90
24176;DHT22;12324;48.146;11.502;2023-12-04T10:55:38;-5.10;99.90
24176;DHT22;12324;48.146;11.502;2023-12-04T10:58:11;-5.20;99.90
24176;DHT22;12324;48.146;11.502;2023-12-04T11:00:44;-5.20;99.90
24176;DHT22;12324;48.146;11.502;2023-12-04T11:03:28;-5.20;99.90
24176;DHT22;12324;48.146;11.502;2023-12-04T11:06:00;-4.80;99.90
24176;DHT22;12324;48.146;11.502;2023-12-04T11:08:29;-5.10;99.90
24176;DHT22;12324;48.146;11.502;2023-12-04T11:11:08;-5.00;99.90
24176;DHT22;12324;48.146;11.502;2023-12-04T11:13:47;-4.90;99.90
24176;DHT22;12324;48.146;11.502;2023-12-04T11:16:57;-4.60;99.90
24176;DHT22;12324;48.146;11.502;2023-12-04T11:19:55;-4.70;99.90
24176;DHT22;12324;48.146;11.502;2023-12-04T11:22:25;-4.70;99.90
24176;DHT22;12324;48.146;11.502;2023-12-04T11:24:52;-4.40;99.90
24176;DHT22;12324;48.146;11.502;2023-12-04T11:27:19;-4.60;99.90
24176;DHT22;12324;48.146;11.502;2023-12-04T11:29:48;-4.90;99.90
24176;DHT22;12324;48.146;11.502;2023-12-04T11:32:16;-4.80;99.90
24176;DHT22;12324;48.146;11.502;2023-12-04T11:34:58;-4.60;99.90
24176;DHT22;12324;48.146;11.502;2023-12-04T11:37:26;-4.40;99.90
24176;DHT22;12324;48.146;11.502;2023-12-04T11:39:53;-4.10;99.90
24176;DHT22;12324;48.146;11.502;2023-12-04T11:42:22;-4.00;99.90
24176;DHT22;12324;48.146;11.502;2023-12-04T11:44:56;-4.10;99.90
24176;DHT22;12324;48.146;11.502;2023-12-04T11:47:24;-4.20;99.90
24176;DHT22;12324;48.146;11.502;2023-12-04T11:49:51;-4.10;99.90
24176;DHT22;12324;48.146;11.502;2023-12-04T11:52:32;-4.20;99.90
24176;DHT22;12324;48.146;11.502;2023-12-04T11:55:06;-4.10;99.90
24176;DHT22;12324;48.146;11.502;2023-12-04T11:57:35;-4.20;99.90
24176;DHT22;12324;48.146;11.502;2023-12-04T12:05:41;-4.30;99.90
24176;DHT22;12324;48.146;11.502;2023-12-04T12:08:09;-4.20;99.90
24176;DHT22;12324;48.146;11.502;2023-12-04T12:10:36;-4.30;99.90
24176;DHT22;12324;48.146;11.502;2023-12-04T12:13:03;-4.00;99.90
24176;DHT22;12324;48.146;11.502;2023-12-04T12:15:32;-4.10;99.90
24176;DHT22;12324;48.146;11.502;2023-12-04T12:17:59;-4.00;99.90
24176;DHT22;12324;48.146;11.502;2023-12-04T12:20:26;-4.00;99.90
24176;DHT22;12324;48.146;11.502;2023-12-04T12:22:53;-4.00;99.90
24176;DHT22;12324;48.146;11.502;2023-12-04T12:25:20;-4.10;99.90
24176;DHT22;12324;48.146;11.502;2023-12-04T12:27:50;-3.70;99.90
24176;DHT22;12324;48.146;11.502;2023-12-04T12:30:17;-3.70;99.90
24176;DHT22;12324;48.146;11.502;2023-12-04T12:32:44;-3.90;99.90
24176;DHT22;12324;48.146;11.502;2023-12-04T12:35:11;-3.80;99.90
24176;DHT22;12324;48.146;11.502;2023-12-04T12:37:39;-3.80;99.90
24176;DHT22;12324;48.146;11.502;2023-12-04T12:40:06;-3.50;99.90
24176;DHT22;12324;48.146;11.502;2023-12-04T12:52:29;-3.50;99.90
24176;DHT22;12324;48.146;11.502;2023-12-04T12:54:56;-3.10;99.90
24176;DHT22;12324;48.146;11.502;2023-12-04T12:57:23;-2.80;99.90
24176;DHT22;12324;48.146;11.502;2023-12-04T12:59:50;-2.80;99.90
24176;DHT22;12324;48.146;11.502;2023-12-04T13:02:16;-2.90;99.90
24176;DHT22;12324;48.146;11.502;2023-12-04T13:04:44;-3.20;99.90
24176;DHT22;12324;48.146;11.502;2023-12-04T13:07:11;-3.10;99.90
24176;DHT22;12324;48.146;11.502;2023-12-04T13:09:39;-2.90;99.90
24176;DHT22;12324;48.146;11.502;2023-12-04T13:12:07;-2.90;99.90
24176;DHT22;12324;48.146;11.502;2023-12-04T13:14:34;-2.80;99.90
24176;DHT22;12324;48.146;11.502;2023-12-04T13:17:03;-3.00;99.90
24176;DHT22;12324;48.146;11.502;2023-12-04T13:19:30;-3.20;99.90
24176;DHT22;12324;48.146;11.502;2023-12-04T13:22:01;-3.30;99.90
24176;DHT22;12324;48.146;11.502;2023-12-04T13:24:30;-3.50;99.90
24176;DHT22;12324;48.146;11.502;2023-12-04T13:26:57;-3.20;99.90
24176;DHT22;12324;48.146;11.502;2023-12-04T13:29:24;-3.40;99.90
24176;DHT22;12324;48.146;11.502;2023-12-04T13:31:51;-3.60;99.90
24176;DHT22;12324;48.146;11.502;2023-12-04T13:34:18;-3.60;99.90
24176;DHT22;12324;48.146;11.502;2023-12-04T13:36:45;-3.70;99.90
24176;DHT22;12324;48.146;11.502;2023-12-04T13:39:11;-3.70;99.90
24176;DHT22;12324;48.146;11.502;2023-12-04T13:41:49;-3.50;99.90
24176;DHT22;12324;48.146;11.502;2023-12-04T13:44:34;-3.50;99.90
24176;DHT22;12324;48.146;11.502;2023-12-04T13:47:01;-3.40;99.90
24176;DHT22;12324;48.146;11.502;2023-12-04T13:49:28;-3.40;99.90
24176;DHT22;12324;48.146;11.502;2023-12-04T13:51:55;-3.40;99.90
24176;DHT22;12324;48.146;11.502;2023-12-04T13:54:22;-3.50;99.90
24176;DHT22;12324;48.146;11.502;2023-12-04T13:57:01;-3.50;99.90
24176;DHT22;12324;48.146;11.502;2023-12-04T13:59:30;-3.50;99.90
24176;DHT22;12324;48.146;11.502;2023-12-04T14:01:59;-3.40;99.90
24176;DHT22;12324;48.146;11.502;2023-12-04T14:04:27;-3.30;99.90
24176;DHT22;12324;48.146;11.502;2023-12-04T14:06:54;-3.40;99.90
24176;DHT22;12324;48.146;11.502;2023-12-04T14:09:25;-3.40;99.90
24176;DHT22;12324;48.146;11.502;2023-12-04T14:11:52;-3.40;99.90
24176;DHT22;12324;48.146;11.502;2023-12-04T14:14:19;-3.40;99.90
24176;DHT22;12324;48.146;11.502;2023-12-04T14:16:46;-3.40;99.90
24176;DHT22;12324;48.146;11.502;2023-12-04T14:19:13;-3.50;99.90
24176;DHT22;12324;48.146;11.502;2023-12-04T14:21:43;-3.60;99.90
24176;DHT22;12324;48.146;11.502;2023-12-04T14:24:10;-3.80;99.90
24176;DHT22;12324;48.146;11.502;2023-12-04T14:26:37;-3.80;99.90
24176;DHT22;12324;48.146;11.502;2023-12-04T14:29:04;-3.80;99.90
24176;DHT22;12324;48.146;11.502;2023-12-04T14:31:30;-3.80;99.90
24176;DHT22;12324;48.146;11.502;2023-12-04T14:33:57;-3.90;99.90
24176;DHT22;12324;48.146;11.502;2023-12-04T14:36:24;-3.90;99.90
24176;DHT22;12324;48.146;11.502;2023-12-04T14:38:52;-3.90;99.90
24176;DHT22;12324;48.146;11.502;2023-12-04T14:41:19;-4.00;99.90
24176;DHT22;12324;48.146;11.502;2023-12-04T14:43:46;-4.10;99.90
24176;DHT22;12324;48.146;11.502;2023-12-04T14:46:13;-4.30;99.90
24176;DHT22;12324;48.146;11.502;2023-12-04T14:48:40;-4.20;99.90
24176;DHT22;12324;48.146;11.502;2023-12-04T14:51:08;-4.30;99.90
24176;DHT22;12324;48.146;11.502;2023-12-04T14:53:39;-4.30;99.90
24176;DHT22;12324;48.146;11.502;2023-12-04T14:56:32;-4.50;99.90
24176;DHT22;12324;48.146;11.502;2023-12-04T14:59:17;-4.60;99.90
24176;DHT22;12324;48.146;11.502;2023-12-04T15:02:12;-4.70;99.90
24176;DHT22;12324;48.146;11.502;2023-12-04T15:04:58;-4.80;99.90
24176;DHT22;12324;48.146;11.502;2023-12-04T15:07:31;-4.80;99.90
24176;DHT22;12324;48.146;11.502;2023-12-04T15:10:17;-4.80;99.90
24176;DHT22;12324;48.146;11.502;2023-12-04T15:13:13;-4.90;99.90
24176;DHT22;12324;48.146;11.502;2023-12-04T15:16:06;-4.90;99.90
24176;DHT22;12324;48.146;11.502;2023-12-04T15:18:51;-5.00;99.90
24176;DHT22;12324;48.146;11.502;2023-12-04T15:21:27;-5.00;99.90
24176;DHT22;12324;48.146;11.502;2023-12-04T15:23:55;-5.00;99.90
24176;DHT22;12324;48.146;11.502;2023-12-04T15:26:23;-5.00;99.90
24176;DHT22;12324;48.146;11.502;2023-12-04T15:28:50;-5.00;99.90
24176;DHT22;12324;48.146;11.502;2023-12-04T15:31:17;-4.90;99.90
24176;DHT22;12324;48.146;11.502;2023-12-04T15:33:43;-4.90;99.90
24176;DHT22;12324;48.146;11.502;2023-12-04T15:36:10;-4.80;99.90
24176;DHT22;12324;48.146;11.502;2023-12-04T15:38:38;-4.90;99.90
24176;DHT22;12324;48.146;11.502;2023-12-04T15:41:05;-4.90;99.90
24176;DHT22;12324;48.146;11.502;2023-12-04T15:43:32;-5.00;99.90
24176;DHT22;12324;48.146;11.502;2023-12-04T15:45:59;-4.90;99.90